sensor_id;sensor_type;location;lat;lon;timestamp;pressure;altitude;pressure_sealevel;temperature;humidity
74893;BME280;63446;56.272;43.922;2024-03-06T00:00:04;101729.72;;;-1.30;47.88
74893;BME280;63446;56.272;43.922;2024-03-06T00:02:31;101737.63;;;-1.39;47.93
74893;BME280;63446;56.272;43.922;2024-03-06T00:04:57;101742.25;;;-1.51;48.03
74893;BME280;63446;56.272;43.922;2024-03-06T00:07:23;101735.41;;;-1.68;48.06
74893;BME280;63446;56.272;43.922;2024-03-06T00:09:49;101736.47;;;-1.79;48.28
74893;BME280;63446;56.272;43.922;2024-03-06T00:12:15;101734.94;;;-1.90;48.28
74893;BME280;63446;56.272;43.922;2024-03-06T00:14:41;101730.81;;;-2.01;48.23
74893;BME280;63446;56.272;43.922;2024-03-06T00:17:08;101736.25;;;-2.12;48.33
74893;BME280;63446;56.272;43.922;2024-03-06T00:19:35;101733.91;;;-2.23;48.50
74893;BME280;63446;56.272;43.922;2024-03-06T00:22:01;101738.38;;;-2.33;48.36
74893;BME280;63446;56.272;43.922;2024-03-06T00:24:28;101739.41;;;-2.44;48.64
74893;BME280;63446;56.272;43.922;2024-03-06T00:26:54;101746.31;;;-2.53;48.63
74893;BME280;63446;56.272;43.922;2024-03-06T00:29:20;101749.63;;;-2.60;48.71
74893;BME280;63446;56.272;43.922;2024-03-06T00:31:46;101748.06;;;-2.71;48.85
74893;BME280;63446;56.272;43.922;2024-03-06T00:34:14;101749.75;;;-2.80;48.97
74893;BME280;63446;56.272;43.922;2024-03-06T00:36:41;101752.81;;;-2.84;48.87
74893;BME280;63446;56.272;43.922;2024-03-06T00:39:07;101749.28;;;-2.93;49.07
74893;BME280;63446;56.272;43.922;2024-03-06T00:41:36;101753.28;;;-2.99;49.05
74893;BME280;63446;56.272;43.922;2024-03-06T00:44:03;101748.84;;;-3.06;49.34
74893;BME280;63446;56.272;43.922;2024-03-06T00:46:29;101752.69;;;-3.10;49.24
74893;BME280;63446;56.272;43.922;2024-03-06T00:48:55;101752.44;;;-3.17;49.20
74893;BME280;63446;56.272;43.922;2024-03-06T00:51:22;101755.44;;;-3.22;49.27
74893;BME280;63446;56.272;43.922;2024-03-06T00:53:48;101756.81;;;-3.27;49.37
74893;BME280;63446;56.272;43.922;2024-03-06T00:56:14;101753.59;;;-3.29;49.34
74893;BME280;63446;56.272;43.922;2024-03-06T00:58:40;101753.88;;;-3.32;49.46
74893;BME280;63446;56.272;43.922;2024-03-06T01:01:06;101751.72;;;-3.37;49.53
74893;BME280;63446;56.272;43.922;2024-03-06T01:03:32;101758.94;;;-3.40;49.64
74893;BME280;63446;56.272;43.922;2024-03-06T01:05:58;101755.81;;;-3.44;49.51
74893;BME280;63446;56.272;43.922;2024-03-06T01:08:24;101755.28;;;-3.48;49.67
74893;BME280;63446;56.272;43.922;2024-03-06T01:10:51;101759.13;;;-3.52;49.81
74893;BME280;63446;56.272;43.922;2024-03-06T01:13:19;101759.41;;;-3.55;49.64
74893;BME280;63446;56.272;43.922;2024-03-06T01:15:45;101751.09;;;-3.58;49.67
74893;BME280;63446;56.272;43.922;2024-03-06T01:18:11;101753.16;;;-3.62;49.77
74893;BME280;63446;56.272;43.922;2024-03-06T01:20:37;101745.41;;;-3.62;49.83
74893;BME280;63446;56.272;43.922;2024-03-06T01:23:04;101745.03;;;-3.67;49.80
74893;BME280;63446;56.272;43.922;2024-03-06T01:25:30;101753.88;;;-3.70;49.93
74893;BME280;63446;56.272;43.922;2024-03-06T01:27:55;101745.19;;;-3.78;49.99
74893;BME280;63446;56.272;43.922;2024-03-06T01:30:21;101752.13;;;-3.79;50.11
74893;BME280;63446;56.272;43.922;2024-03-06T01:32:47;101757.72;;;-3.83;50.14
74893;BME280;63446;56.272;43.922;2024-03-06T01:35:13;101758.66;;;-3.84;50.25
74893;BME280;63446;56.272;43.922;2024-03-06T01:37:39;101762.34;;;-3.87;50.31
74893;BME280;63446;56.272;43.922;2024-03-06T01:40:06;101750.78;;;-3.93;50.32
74893;BME280;63446;56.272;43.922;2024-03-06T01:42:34;101762.63;;;-3.90;50.37
74893;BME280;63446;56.272;43.922;2024-03-06T01:45:02;101731.53;;;-4.08;50.26
74893;BME280;63446;56.272;43.922;2024-03-06T01:47:30;101762.09;;;-3.94;50.34
74893;BME280;63446;56.272;43.922;2024-03-06T01:49:56;101764.81;;;-3.95;50.37
74893;BME280;63446;56.272;43.922;2024-03-06T01:52:22;101755.44;;;-3.96;50.47
74893;BME280;63446;56.272;43.922;2024-03-06T01:54:49;101767.69;;;-3.98;50.43
74893;BME280;63446;56.272;43.922;2024-03-06T01:57:17;101759.25;;;-4.00;50.46
74893;BME280;63446;56.272;43.922;2024-03-06T01:59:44;101764.41;;;-4.00;50.42
74893;BME280;63446;56.272;43.922;2024-03-06T02:02:09;101764.56;;;-4.02;50.51
74893;BME280;63446;56.272;43.922;2024-03-06T02:04:37;101766.19;;;-4.01;50.57
74893;BME280;63446;56.272;43.922;2024-03-06T02:07:08;101761.28;;;-4.04;50.69
74893;BME280;63446;56.272;43.922;2024-03-06T02:09:34;101778.44;;;-4.03;50.68
74893;BME280;63446;56.272;43.922;2024-03-06T02:12:00;101774.19;;;-4.04;50.69
74893;BME280;63446;56.272;43.922;2024-03-06T02:14:29;101765.78;;;-4.06;50.65
74893;BME280;63446;56.272;43.922;2024-03-06T02:16:55;101769.34;;;-4.07;50.80
74893;BME280;63446;56.272;43.922;2024-03-06T02:19:21;101774.50;;;-4.07;50.79
74893;BME280;63446;56.272;43.922;2024-03-06T02:21:47;101776.38;;;-4.09;50.89
74893;BME280;63446;56.272;43.922;2024-03-06T02:24:13;101777.34;;;-4.10;50.93
74893;BME280;63446;56.272;43.922;2024-03-06T02:26:41;101782.50;;;-4.10;50.90
74893;BME280;63446;56.272;43.922;2024-03-06T02:29:08;101776.53;;;-4.10;50.85
74893;BME280;63446;56.272;43.922;2024-03-06T02:31:34;101788.63;;;-4.11;50.95
74893;BME280;63446;56.272;43.922;2024-03-06T02:34:00;101780.34;;;-4.14;50.78
74893;BME280;63446;56.272;43.922;2024-03-06T02:36:30;101786.31;;;-4.14;50.77
74893;BME280;63446;56.272;43.922;2024-03-06T02:38:56;101787.28;;;-4.15;50.91
74893;BME280;63446;56.272;43.922;2024-03-06T02:41:22;101782.38;;;-4.18;51.03
74893;BME280;63446;56.272;43.922;2024-03-06T02:43:48;101784.16;;;-4.19;50.97
74893;BME280;63446;56.272;43.922;2024-03-06T02:46:14;101785.22;;;-4.21;50.91
74893;BME280;63446;56.272;43.922;2024-03-06T02:48:40;101788.09;;;-4.24;51.03
74893;BME280;63446;56.272;43.922;2024-03-06T02:51:05;101791.75;;;-4.27;50.98
74893;BME280;63446;56.272;43.922;2024-03-06T02:53:31;101793.50;;;-4.27;50.82
74893;BME280;63446;56.272;43.922;2024-03-06T02:55:58;101795.44;;;-4.29;51.15
74893;BME280;63446;56.272;43.922;2024-03-06T02:58:23;101793.13;;;-4.32;51.09
74893;BME280;63446;56.272;43.922;2024-03-06T03:00:49;101799.34;;;-4.35;51.15
74893;BME280;63446;56.272;43.922;2024-03-06T03:03:15;101806.53;;;-4.38;51.26
74893;BME280;63446;56.272;43.922;2024-03-06T03:05:41;101800.03;;;-4.43;51.26
74893;BME280;63446;56.272;43.922;2024-03-06T03:08:06;101805.59;;;-4.47;51.20
74893;BME280;63446;56.272;43.922;2024-03-06T03:15:28;101806.81;;;-4.61;51.32
74893;BME280;63446;56.272;43.922;2024-03-06T03:18:39;101810.88;;;-4.68;51.31
74893;BME280;63446;56.272;43.922;2024-03-06T03:21:08;101807.59;;;-4.70;51.53
74893;BME280;63446;56.272;43.922;2024-03-06T03:23:36;101813.88;;;-4.73;51.60
74893;BME280;63446;56.272;43.922;2024-03-06T03:26:02;101819.94;;;-4.74;51.79
74893;BME280;63446;56.272;43.922;2024-03-06T03:28:29;101820.09;;;-4.75;51.86
74893;BME280;63446;56.272;43.922;2024-03-06T03:30:56;101821.03;;;-4.76;51.84
74893;BME280;63446;56.272;43.922;2024-03-06T03:33:22;101813.69;;;-4.81;51.90
74893;BME280;63446;56.272;43.922;2024-03-06T03:35:48;101821.84;;;-4.76;51.92
74893;BME280;63446;56.272;43.922;2024-03-06T03:38:14;101836.63;;;-4.78;51.99
74893;BME280;63446;56.272;43.922;2024-03-06T03:40:40;101833.00;;;-4.75;51.93
74893;BME280;63446;56.272;43.922;2024-03-06T03:43:06;101832.59;;;-4.71;51.93
74893;BME280;63446;56.272;43.922;2024-03-06T03:45:35;101830.56;;;-4.67;51.69
74893;BME280;63446;56.272;43.922;2024-03-06T03:48:02;101834.50;;;-4.63;51.70
74893;BME280;63446;56.272;43.922;2024-03-06T03:50:28;101835.88;;;-4.59;51.75
74893;BME280;63446;56.272;43.922;2024-03-06T03:52:55;101831.09;;;-4.54;51.64
74893;BME280;63446;56.272;43.922;2024-03-06T03:55:26;101840.22;;;-4.50;51.58
74893;BME280;63446;56.272;43.922;2024-03-06T03:57:53;101839.69;;;-4.44;51.51
74893;BME280;63446;56.272;43.922;2024-03-06T04:00:19;101840.25;;;-4.30;51.37
74893;BME280;63446;56.272;43.922;2024-03-06T04:02:45;101823.41;;;-3.96;50.94
74893;BME280;63446;56.272;43.922;2024-03-06T04:05:11;101823.72;;;-3.42;50.58
74893;BME280;63446;56.272;43.922;2024-03-06T04:07:38;101824.41;;;-2.57;49.52
74893;BME280;63446;56.272;43.922;2024-03-06T04:10:04;101829.22;;;-1.65;48.64
74893;BME280;63446;56.272;43.922;2024-03-06T04:12:31;101829.75;;;-0.85;47.59
74893;BME280;63446;56.272;43.922;2024-03-06T04:14:57;101826.16;;;-0.09;46.71
74893;BME280;63446;56.272;43.922;2024-03-06T04:17:23;101825.69;;;0.76;45.50
74893;BME280;63446;56.272;43.922;2024-03-06T04:19:50;101826.34;;;1.94;43.89
74893;BME280;63446;56.272;43.922;2024-03-06T04:22:20;101837.66;;;3.13;42.17
74893;BME280;63446;56.272;43.922;2024-03-06T04:24:46;101839.72;;;4.25;40.67
74893;BME280;63446;56.272;43.922;2024-03-06T04:27:12;101838.47;;;5.32;39.28
74893;BME280;63446;56.272;43.922;2024-03-06T04:29:38;101831.13;;;6.28;38.10
74893;BME280;63446;56.272;43.922;2024-03-06T04:32:03;101834.41;;;7.33;36.57
74893;BME280;63446;56.272;43.922;2024-03-06T04:34:29;101837.69;;;8.42;35.29
74893;BME280;63446;56.272;43.922;2024-03-06T04:36:56;101838.81;;;9.50;33.85
74893;BME280;63446;56.272;43.922;2024-03-06T04:39:22;101838.13;;;10.43;32.88
74893;BME280;63446;56.272;43.922;2024-03-06T04:41:49;101838.97;;;11.24;31.59
74893;BME280;63446;56.272;43.922;2024-03-06T04:44:14;101844.13;;;12.10;30.68
74893;BME280;63446;56.272;43.922;2024-03-06T04:46:40;101837.75;;;12.89;29.78
74893;BME280;63446;56.272;43.922;2024-03-06T04:49:06;101835.94;;;13.71;28.61
74893;BME280;63446;56.272;43.922;2024-03-06T04:51:31;101846.59;;;14.50;27.78
74893;BME280;63446;56.272;43.922;2024-03-06T04:53:57;101833.00;;;15.14;26.78
74893;BME280;63446;56.272;43.922;2024-03-06T04:56:24;101841.06;;;15.86;25.78
74893;BME280;63446;56.272;43.922;2024-03-06T04:58:49;101836.91;;;16.55;24.94
74893;BME280;63446;56.272;43.922;2024-03-06T05:01:17;101847.28;;;17.26;24.00
74893;BME280;63446;56.272;43.922;2024-03-06T05:03:42;101846.03;;;17.87;23.50
74893;BME280;63446;56.272;43.922;2024-03-06T05:06:08;101845.63;;;18.28;22.54
74893;BME280;63446;56.272;43.922;2024-03-06T05:08:35;101840.09;;;18.67;21.93
74893;BME280;63446;56.272;43.922;2024-03-06T05:11:04;101839.28;;;19.10;21.39
74893;BME280;63446;56.272;43.922;2024-03-06T05:13:29;101835.47;;;19.48;20.99
74893;BME280;63446;56.272;43.922;2024-03-06T05:15:55;101833.63;;;19.82;20.49
74893;BME280;63446;56.272;43.922;2024-03-06T05:18:21;101828.56;;;19.94;19.97
74893;BME280;63446;56.272;43.922;2024-03-06T05:20:47;101835.22;;;19.31;19.93
74893;BME280;63446;56.272;43.922;2024-03-06T05:23:13;101839.84;;;17.92;20.17
74893;BME280;63446;56.272;43.922;2024-03-06T05:25:40;101840.19;;;16.36;21.18
74893;BME280;63446;56.272;43.922;2024-03-06T05:28:06;101826.28;;;14.92;22.07
74893;BME280;63446;56.272;43.922;2024-03-06T05:30:32;101832.91;;;13.57;22.79
74893;BME280;63446;56.272;43.922;2024-03-06T05:32:57;101836.53;;;12.36;23.46
74893;BME280;63446;56.272;43.922;2024-03-06T05:35:23;101832.63;;;11.25;24.40
74893;BME280;63446;56.272;43.922;2024-03-06T05:37:50;101835.16;;;10.28;25.08
74893;BME280;63446;56.272;43.922;2024-03-06T05:40:16;101831.88;;;9.37;25.78
74893;BME280;63446;56.272;43.922;2024-03-06T05:42:42;101833.88;;;8.56;26.30
74893;BME280;63446;56.272;43.922;2024-03-06T05:45:09;101829.22;;;7.83;26.85
74893;BME280;63446;56.272;43.922;2024-03-06T05:47:38;101832.50;;;7.09;27.43
74893;BME280;63446;56.272;43.922;2024-03-06T05:50:08;101823.59;;;6.45;27.95
74893;BME280;63446;56.272;43.922;2024-03-06T05:52:36;101825.25;;;5.86;28.52
74893;BME280;63446;56.272;43.922;2024-03-06T05:55:03;101827.38;;;5.36;28.92
74893;BME280;63446;56.272;43.922;2024-03-06T05:57:32;101826.41;;;4.89;29.24
74893;BME280;63446;56.272;43.922;2024-03-06T05:59:58;101835.91;;;4.56;29.67
74893;BME280;63446;56.272;43.922;2024-03-06T06:02:24;101832.69;;;4.26;30.06
74893;BME280;63446;56.272;43.922;2024-03-06T06:04:51;101827.38;;;3.91;30.23
74893;BME280;63446;56.272;43.922;2024-03-06T06:07:18;101837.06;;;3.69;30.58
74893;BME280;63446;56.272;43.922;2024-03-06T06:09:45;101823.31;;;3.46;30.80
74893;BME280;63446;56.272;43.922;2024-03-06T06:12:11;101831.16;;;3.24;31.10
74893;BME280;63446;56.272;43.922;2024-03-06T06:14:38;101827.66;;;3.02;31.31
74893;BME280;63446;56.272;43.922;2024-03-06T06:17:04;101831.66;;;2.83;31.49
74893;BME280;63446;56.272;43.922;2024-03-06T06:19:30;101832.66;;;2.67;31.64
74893;BME280;63446;56.272;43.922;2024-03-06T06:21:56;101830.47;;;2.56;31.88
74893;BME280;63446;56.272;43.922;2024-03-06T06:24:21;101832.03;;;2.51;32.10
74893;BME280;63446;56.272;43.922;2024-03-06T06:26:47;101827.84;;;2.41;32.25
74893;BME280;63446;56.272;43.922;2024-03-06T06:29:13;101840.00;;;2.34;32.36
74893;BME280;63446;56.272;43.922;2024-03-06T06:31:39;101832.88;;;2.28;32.65
74893;BME280;63446;56.272;43.922;2024-03-06T06:34:05;101837.84;;;2.23;32.65
74893;BME280;63446;56.272;43.922;2024-03-06T06:36:30;101829.56;;;2.19;32.89
74893;BME280;63446;56.272;43.922;2024-03-06T06:38:56;101836.72;;;2.17;33.17
74893;BME280;63446;56.272;43.922;2024-03-06T06:41:22;101840.69;;;2.13;33.35
74893;BME280;63446;56.272;43.922;2024-03-06T06:43:50;101837.41;;;2.11;33.41
74893;BME280;63446;56.272;43.922;2024-03-06T06:46:18;101836.34;;;2.06;33.64
74893;BME280;63446;56.272;43.922;2024-03-06T06:48:44;101832.47;;;2.02;33.73
74893;BME280;63446;56.272;43.922;2024-03-06T06:51:10;101850.06;;;2.00;33.86
74893;BME280;63446;56.272;43.922;2024-03-06T06:53:39;101848.19;;;1.93;33.94
74893;BME280;63446;56.272;43.922;2024-03-06T06:56:07;101846.78;;;1.83;33.98
74893;BME280;63446;56.272;43.922;2024-03-06T06:58:33;101854.66;;;1.75;34.11
74893;BME280;63446;56.272;43.922;2024-03-06T07:00:59;101860.09;;;1.65;34.42
74893;BME280;63446;56.272;43.922;2024-03-06T07:03:25;101852.06;;;1.52;34.51
74893;BME280;63446;56.272;43.922;2024-03-06T07:05:56;101848.03;;;1.41;34.68
74893;BME280;63446;56.272;43.922;2024-03-06T07:08:23;101855.72;;;1.34;34.86
74893;BME280;63446;56.272;43.922;2024-03-06T07:10:50;101858.84;;;1.30;35.06
74893;BME280;63446;56.272;43.922;2024-03-06T07:13:16;101860.81;;;1.28;35.19
74893;BME280;63446;56.272;43.922;2024-03-06T07:15:43;101859.34;;;1.25;35.21
74893;BME280;63446;56.272;43.922;2024-03-06T07:18:09;101867.81;;;1.27;35.42
74893;BME280;63446;56.272;43.922;2024-03-06T07:20:35;101865.22;;;1.27;35.45
74893;BME280;63446;56.272;43.922;2024-03-06T07:23:01;101868.78;;;1.26;35.45
74893;BME280;63446;56.272;43.922;2024-03-06T07:25:27;101868.44;;;1.29;35.42
74893;BME280;63446;56.272;43.922;2024-03-06T07:27:53;101869.09;;;1.31;35.60
74893;BME280;63446;56.272;43.922;2024-03-06T07:30:19;101871.34;;;1.34;35.61
74893;BME280;63446;56.272;43.922;2024-03-06T07:32:44;101865.16;;;1.35;35.53
74893;BME280;63446;56.272;43.922;2024-03-06T07:35:11;101863.38;;;1.36;35.55
74893;BME280;63446;56.272;43.922;2024-03-06T07:37:37;101875.22;;;1.38;35.61
74893;BME280;63446;56.272;43.922;2024-03-06T07:40:03;101873.41;;;1.47;35.76
74893;BME280;63446;56.272;43.922;2024-03-06T07:42:31;101885.72;;;1.53;35.71
74893;BME280;63446;56.272;43.922;2024-03-06T07:44:59;101869.94;;;1.55;35.78
74893;BME280;63446;56.272;43.922;2024-03-06T07:47:26;101882.00;;;1.56;35.65
74893;BME280;63446;56.272;43.922;2024-03-06T07:49:52;101877.13;;;1.53;35.59
74893;BME280;63446;56.272;43.922;2024-03-06T07:52:18;101867.50;;;1.53;35.54
74893;BME280;63446;56.272;43.922;2024-03-06T07:54:43;101866.16;;;1.57;35.51
74893;BME280;63446;56.272;43.922;2024-03-06T07:57:09;101871.69;;;1.62;35.65
74893;BME280;63446;56.272;43.922;2024-03-06T07:59:35;101870.03;;;1.69;35.65
74893;BME280;63446;56.272;43.922;2024-03-06T08:02:01;101869.31;;;1.76;35.70
74893;BME280;63446;56.272;43.922;2024-03-06T08:04:27;101873.66;;;1.83;35.73
74893;BME280;63446;56.272;43.922;2024-03-06T08:06:52;101868.09;;;1.86;35.58
74893;BME280;63446;56.272;43.922;2024-03-06T08:09:19;101865.63;;;1.93;35.69
74893;BME280;63446;56.272;43.922;2024-03-06T08:11:46;101863.28;;;1.98;35.55
74893;BME280;63446;56.272;43.922;2024-03-06T08:14:12;101860.16;;;2.03;35.41
74893;BME280;63446;56.272;43.922;2024-03-06T08:16:40;101853.94;;;2.04;35.37
74893;BME280;63446;56.272;43.922;2024-03-06T08:19:06;101860.81;;;2.05;35.13
74893;BME280;63446;56.272;43.922;2024-03-06T08:21:32;101847.66;;;1.98;35.05
74893;BME280;63446;56.272;43.922;2024-03-06T08:23:58;101850.78;;;1.93;35.17
74893;BME280;63446;56.272;43.922;2024-03-06T08:26:24;101843.50;;;1.89;35.11
74893;BME280;63446;56.272;43.922;2024-03-06T08:28:51;101850.84;;;1.85;35.04
74893;BME280;63446;56.272;43.922;2024-03-06T08:31:18;101839.63;;;1.85;34.96
74893;BME280;63446;56.272;43.922;2024-03-06T08:33:44;101841.03;;;1.87;35.22
74893;BME280;63446;56.272;43.922;2024-03-06T08:36:10;101838.75;;;1.92;35.10
74893;BME280;63446;56.272;43.922;2024-03-06T08:38:36;101827.78;;;1.97;34.95
74893;BME280;63446;56.272;43.922;2024-03-06T08:41:02;101838.31;;;2.04;34.96
74893;BME280;63446;56.272;43.922;2024-03-06T08:43:28;101846.78;;;2.06;34.82
74893;BME280;63446;56.272;43.922;2024-03-06T08:45:54;101838.94;;;2.06;34.81
74893;BME280;63446;56.272;43.922;2024-03-06T08:48:21;101837.97;;;2.07;34.71
74893;BME280;63446;56.272;43.922;2024-03-06T08:50:47;101838.88;;;2.14;34.85
74893;BME280;63446;56.272;43.922;2024-03-06T08:53:12;101821.72;;;2.19;34.90
74893;BME280;63446;56.272;43.922;2024-03-06T08:55:40;101828.03;;;2.25;34.85
74893;BME280;63446;56.272;43.922;2024-03-06T08:58:06;101835.16;;;2.31;34.90
74893;BME280;63446;56.272;43.922;2024-03-06T09:00:34;101828.84;;;2.40;34.97
74893;BME280;63446;56.272;43.922;2024-03-06T09:03:00;101828.97;;;2.47;34.79
74893;BME280;63446;56.272;43.922;2024-03-06T09:05:26;101824.81;;;2.53;34.59
74893;BME280;63446;56.272;43.922;2024-03-06T09:07:52;101827.53;;;2.59;34.67
74893;BME280;63446;56.272;43.922;2024-03-06T09:10:18;101816.72;;;2.62;34.45
74893;BME280;63446;56.272;43.922;2024-03-06T09:12:45;101818.78;;;2.67;34.37
74893;BME280;63446;56.272;43.922;2024-03-06T09:15:14;101806.34;;;2.69;34.31
74893;BME280;63446;56.272;43.922;2024-03-06T09:17:40;101806.81;;;2.73;34.04
74893;BME280;63446;56.272;43.922;2024-03-06T09:20:07;101806.09;;;2.79;34.11
74893;BME280;63446;56.272;43.922;2024-03-06T09:22:37;101808.00;;;2.85;34.11
74893;BME280;63446;56.272;43.922;2024-03-06T09:25:05;101810.66;;;2.91;34.04
74893;BME280;63446;56.272;43.922;2024-03-06T09:27:32;101819.59;;;2.97;33.97
74893;BME280;63446;56.272;43.922;2024-03-06T09:29:58;101812.56;;;2.98;33.94
74893;BME280;63446;56.272;43.922;2024-03-06T09:32:26;101813.00;;;3.01;33.89
74893;BME280;63446;56.272;43.922;2024-03-06T09:34:52;101807.78;;;3.01;33.78
74893;BME280;63446;56.272;43.922;2024-03-06T09:37:19;101804.97;;;3.03;33.75
74893;BME280;63446;56.272;43.922;2024-03-06T09:39:45;101805.78;;;3.03;33.62
74893;BME280;63446;56.272;43.922;2024-03-06T09:42:15;101803.81;;;3.05;33.46
74893;BME280;63446;56.272;43.922;2024-03-06T09:44:42;101806.06;;;3.08;33.34
74893;BME280;63446;56.272;43.922;2024-03-06T09:47:12;101808.47;;;3.10;33.31
74893;BME280;63446;56.272;43.922;2024-03-06T09:49:40;101802.88;;;3.13;33.41
74893;BME280;63446;56.272;43.922;2024-03-06T09:52:06;101798.56;;;3.20;33.46
74893;BME280;63446;56.272;43.922;2024-03-06T09:54:33;101800.59;;;3.25;33.20
74893;BME280;63446;56.272;43.922;2024-03-06T09:56:59;101788.19;;;3.27;33.04
74893;BME280;63446;56.272;43.922;2024-03-06T09:59:25;101797.25;;;3.31;33.08
74893;BME280;63446;56.272;43.922;2024-03-06T10:01:57;101793.44;;;3.33;32.93
74893;BME280;63446;56.272;43.922;2024-03-06T10:04:25;101783.28;;;3.38;33.05
74893;BME280;63446;56.272;43.922;2024-03-06T10:06:58;101792.16;;;3.44;32.87
74893;BME280;63446;56.272;43.922;2024-03-06T10:09:26;101782.50;;;3.45;32.62
74893;BME280;63446;56.272;43.922;2024-03-06T10:11:53;101770.63;;;3.42;32.43
74893;BME280;63446;56.272;43.922;2024-03-06T10:14:22;101778.03;;;3.38;32.20
74893;BME280;63446;56.272;43.922;2024-03-06T10:16:58;101780.66;;;3.38;31.91
74893;BME280;63446;56.272;43.922;2024-03-06T10:19:26;101776.25;;;3.39;32.03
74893;BME280;63446;56.272;43.922;2024-03-06T10:21:56;101777.84;;;3.40;32.06
74893;BME280;63446;56.272;43.922;2024-03-06T10:24:27;101773.44;;;3.40;32.12
74893;BME280;63446;56.272;43.922;2024-03-06T10:26:58;101772.25;;;3.43;32.32
74893;BME280;63446;56.272;43.922;2024-03-06T10:29:26;101772.06;;;3.45;32.05
74893;BME280;63446;56.272;43.922;2024-03-06T10:31:55;101773.66;;;3.46;32.14
74893;BME280;63446;56.272;43.922;2024-03-06T10:34:25;101769.06;;;3.48;32.21
74893;BME280;63446;56.272;43.922;2024-03-06T10:37:02;101774.75;;;3.51;32.21
74893;BME280;63446;56.272;43.922;2024-03-06T10:39:35;101767.72;;;3.52;32.14
74893;BME280;63446;56.272;43.922;2024-03-06T10:42:07;101770.31;;;3.52;32.15
74893;BME280;63446;56.272;43.922;2024-03-06T10:44:44;101769.94;;;3.55;32.27
74893;BME280;63446;56.272;43.922;2024-03-06T10:47:15;101768.13;;;3.55;32.18
74893;BME280;63446;56.272;43.922;2024-03-06T10:49:41;101764.72;;;3.55;31.86
74893;BME280;63446;56.272;43.922;2024-03-06T10:52:09;101762.28;;;3.53;31.30
74893;BME280;63446;56.272;43.922;2024-03-06T10:54:35;101757.44;;;3.50;31.17
74893;BME280;63446;56.272;43.922;2024-03-06T10:57:02;101764.88;;;3.53;31.21
74893;BME280;63446;56.272;43.922;2024-03-06T10:59:29;101769.31;;;3.53;31.06
74893;BME280;63446;56.272;43.922;2024-03-06T11:01:59;101756.25;;;3.53;30.98
74893;BME280;63446;56.272;43.922;2024-03-06T11:04:28;101752.81;;;3.52;30.97
74893;BME280;63446;56.272;43.922;2024-03-06T11:06:57;101741.94;;;3.49;30.96
74893;BME280;63446;56.272;43.922;2024-03-06T11:09:32;101746.16;;;3.50;30.78
74893;BME280;63446;56.272;43.922;2024-03-06T11:12:01;101737.72;;;3.48;30.65
74893;BME280;63446;56.272;43.922;2024-03-06T11:14:31;101731.69;;;3.47;30.78
74893;BME280;63446;56.272;43.922;2024-03-06T11:17:05;101735.91;;;3.48;30.85
74893;BME280;63446;56.272;43.922;2024-03-06T11:20:15;101740.75;;;3.51;30.99
74893;BME280;63446;56.272;43.922;2024-03-06T11:23:02;101738.59;;;3.55;30.98
74893;BME280;63446;56.272;43.922;2024-03-06T11:28:25;101731.31;;;3.50;30.74
74893;BME280;63446;56.272;43.922;2024-03-06T11:31:01;101737.34;;;3.51;30.67
74893;BME280;63446;56.272;43.922;2024-03-06T11:33:41;101736.72;;;3.49;30.75
74893;BME280;63446;56.272;43.922;2024-03-06T11:36:27;101749.34;;;3.45;30.73
74893;BME280;63446;56.272;43.922;2024-03-06T11:41:23;101742.06;;;3.40;30.72
74893;BME280;63446;56.272;43.922;2024-03-06T11:43:51;101737.03;;;3.39;30.79
74893;BME280;63446;56.272;43.922;2024-03-06T11:46:22;101738.00;;;3.38;30.63
74893;BME280;63446;56.272;43.922;2024-03-06T11:48:55;101730.38;;;3.36;30.50
74893;BME280;63446;56.272;43.922;2024-03-06T11:51:22;101729.75;;;3.34;30.39
74893;BME280;63446;56.272;43.922;2024-03-06T11:53:49;101731.94;;;3.31;30.10
74893;BME280;63446;56.272;43.922;2024-03-06T11:56:18;101723.03;;;3.25;29.95
74893;BME280;63446;56.272;43.922;2024-03-06T11:58:45;101722.59;;;3.22;29.85
74893;BME280;63446;56.272;43.922;2024-03-06T12:01:13;101722.97;;;3.18;29.94
74893;BME280;63446;56.272;43.922;2024-03-06T12:03:40;101716.94;;;3.18;29.87
74893;BME280;63446;56.272;43.922;2024-03-06T12:06:06;101717.28;;;3.15;29.88
74893;BME280;63446;56.272;43.922;2024-03-06T12:08:33;101721.09;;;3.12;29.80
74893;BME280;63446;56.272;43.922;2024-03-06T12:11:04;101712.19;;;3.07;29.56
74893;BME280;63446;56.272;43.922;2024-03-06T12:13:31;101707.38;;;3.04;29.43
74893;BME280;63446;56.272;43.922;2024-03-06T12:15:58;101716.53;;;3.00;29.51
74893;BME280;63446;56.272;43.922;2024-03-06T12:18:24;101713.91;;;3.00;29.44
74893;BME280;63446;56.272;43.922;2024-03-06T12:20:50;101719.53;;;2.97;29.42
74893;BME280;63446;56.272;43.922;2024-03-06T12:23:21;101719.53;;;2.97;29.66
74893;BME280;63446;56.272;43.922;2024-03-06T12:26:07;101717.09;;;2.95;29.73
74893;BME280;63446;56.272;43.922;2024-03-06T12:28:39;101713.69;;;2.94;29.83
74893;BME280;63446;56.272;43.922;2024-03-06T12:31:06;101717.28;;;2.93;29.73
74893;BME280;63446;56.272;43.922;2024-03-06T12:33:33;101716.84;;;2.90;29.88
74893;BME280;63446;56.272;43.922;2024-03-06T12:36:06;101712.00;;;2.87;29.53
74893;BME280;63446;56.272;43.922;2024-03-06T12:38:36;101714.97;;;2.84;29.49
74893;BME280;63446;56.272;43.922;2024-03-06T12:41:02;101713.53;;;2.81;29.33
74893;BME280;63446;56.272;43.922;2024-03-06T12:43:28;101707.88;;;2.78;29.45
74893;BME280;63446;56.272;43.922;2024-03-06T12:45:54;101709.03;;;2.75;29.32
74893;BME280;63446;56.272;43.922;2024-03-06T12:48:23;101705.19;;;2.71;29.30
74893;BME280;63446;56.272;43.922;2024-03-06T12:50:55;101711.78;;;2.67;29.21
74893;BME280;63446;56.272;43.922;2024-03-06T12:53:21;101709.88;;;2.61;29.14
74893;BME280;63446;56.272;43.922;2024-03-06T12:55:48;101695.97;;;2.54;29.26